sensor_id;sensor_type;location;lat;lon;timestamp;temperature;humidity
8892;DHT22;4482;54.332;10.118;2023-03-05T00:01:54;2.80;99.90
8892;DHT22;4482;54.332;10.118;2023-03-05T00:04:21;2.80;99.90
8892;DHT22;4482;54.332;10.118;2023-03-05T00:06:49;2.80;99.90
8892;DHT22;4482;54.332;10.118;2023-03-05T00:09:16;2.80;99.90
8892;DHT22;4482;54.332;10.118;2023-03-05T00:11:42;2.80;99.90
8892;DHT22;4482;54.332;10.118;2023-03-05T00:14:09;3.10;99.90
8892;DHT22;4482;54.332;10.118;2023-03-05T00:16:37;3.10;99.90
8892;DHT22;4482;54.332;10.118;2023-03-05T00:19:04;3.00;99.90
8892;DHT22;4482;54.332;10.118;2023-03-05T00:21:32;2.90;99.90
8892;DHT22;4482;54.332;10.118;2023-03-05T00:24:00;2.80;99.90
8892;DHT22;4482;54.332;10.118;2023-03-05T00:26:28;2.80;99.90
8892;DHT22;4482;54.332;10.118;2023-03-05T00:28:56;2.70;99.90
8892;DHT22;4482;54.332;10.118;2023-03-05T00:31:23;2.70;99.90
8892;DHT22;4482;54.332;10.118;2023-03-05T00:33:51;2.70;99.90
8892;DHT22;4482;54.332;10.118;2023-03-05T00:36:17;2.70;99.90
8892;DHT22;4482;54.332;10.118;2023-03-05T00:38:44;2.70;99.90
8892;DHT22;4482;54.332;10.118;2023-03-05T00:41:12;2.70;99.90
8892;DHT22;4482;54.332;10.118;2023-03-05T00:43:39;2.70;99.90
8892;DHT22;4482;54.332;10.118;2023-03-05T00:46:06;2.80;99.90
8892;DHT22;4482;54.332;10.118;2023-03-05T00:48:32;2.80;99.90
8892;DHT22;4482;54.332;10.118;2023-03-05T00:50:59;2.90;99.90
8892;DHT22;4482;54.332;10.118;2023-03-05T00:53:26;2.90;99.90
8892;DHT22;4482;54.332;10.118;2023-03-05T00:55:52;2.90;99.90
8892;DHT22;4482;54.332;10.118;2023-03-05T00:58:20;2.80;99.90
8892;DHT22;4482;54.332;10.118;2023-03-05T01:00:47;2.80;99.90
8892;DHT22;4482;54.332;10.118;2023-03-05T01:03:14;2.80;99.90
8892;DHT22;4482;54.332;10.118;2023-03-05T01:05:41;2.70;99.90
8892;DHT22;4482;54.332;10.118;2023-03-05T01:08:08;2.70;99.90
8892;DHT22;4482;54.332;10.118;2023-03-05T01:10:35;2.70;99.90
8892;DHT22;4482;54.332;10.118;2023-03-05T01:13:02;2.70;99.90
8892;DHT22;4482;54.332;10.118;2023-03-05T01:15:30;2.70;99.90
8892;DHT22;4482;54.332;10.118;2023-03-05T01:17:56;2.60;99.90
8892;DHT22;4482;54.332;10.118;2023-03-05T01:20:23;2.60;99.90
8892;DHT22;4482;54.332;10.118;2023-03-05T01:22:49;2.50;99.90
8892;DHT22;4482;54.332;10.118;2023-03-05T01:25:17;2.50;99.90
8892;DHT22;4482;54.332;10.118;2023-03-05T01:27:43;2.50;99.90
8892;DHT22;4482;54.332;10.118;2023-03-05T01:30:11;2.50;99.90
8892;DHT22;4482;54.332;10.118;2023-03-05T01:32:39;2.50;99.90
8892;DHT22;4482;54.332;10.118;2023-03-05T01:35:06;2.50;99.90
8892;DHT22;4482;54.332;10.118;2023-03-05T01:37:33;2.50;99.90
8892;DHT22;4482;54.332;10.118;2023-03-05T01:40:00;2.40;99.90
8892;DHT22;4482;54.332;10.118;2023-03-05T01:42:26;2.40;99.90
8892;DHT22;4482;54.332;10.118;2023-03-05T01:45:00;2.40;99.90
8892;DHT22;4482;54.332;10.118;2023-03-05T01:47:27;2.40;99.90
8892;DHT22;4482;54.332;10.118;2023-03-05T01:49:55;2.40;99.90
8892;DHT22;4482;54.332;10.118;2023-03-05T01:52:22;2.40;99.90
8892;DHT22;4482;54.332;10.118;2023-03-05T01:54:50;2.40;99.90
8892;DHT22;4482;54.332;10.118;2023-03-05T01:57:20;2.30;99.90
8892;DHT22;4482;54.332;10.118;2023-03-05T01:59:48;2.30;99.90
8892;DHT22;4482;54.332;10.118;2023-03-05T02:02:16;2.30;99.90
8892;DHT22;4482;54.332;10.118;2023-03-05T02:04:44;2.30;99.90
8892;DHT22;4482;54.332;10.118;2023-03-05T02:07:13;2.30;99.90
8892;DHT22;4482;54.332;10.118;2023-03-05T02:09:41;2.20;99.90
8892;DHT22;4482;54.332;10.118;2023-03-05T02:12:08;2.20;99.90
8892;DHT22;4482;54.332;10.118;2023-03-05T02:14:35;2.20;99.90
8892;DHT22;4482;54.332;10.118;2023-03-05T02:17:02;2.20;99.90
8892;DHT22;4482;54.332;10.118;2023-03-05T02:19:32;2.20;99.90
8892;DHT22;4482;54.332;10.118;2023-03-05T02:22:14;2.20;99.90
8892;DHT22;4482;54.332;10.118;2023-03-05T02:24:41;2.10;99.90
8892;DHT22;4482;54.332;10.118;2023-03-05T02:27:07;2.10;99.90
8892;DHT22;4482;54.332;10.118;2023-03-05T02:29:34;2.10;99.90
8892;DHT22;4482;54.332;10.118;2023-03-05T02:32:03;2.10;99.90
8892;DHT22;4482;54.332;10.118;2023-03-05T02:34:29;2.10;99.90
8892;DHT22;4482;54.332;10.118;2023-03-05T02:36:56;2.10;99.90
8892;DHT22;4482;54.332;10.118;2023-03-05T02:39:24;2.10;99.90
8892;DHT22;4482;54.332;10.118;2023-03-05T02:41:51;2.00;99.90
8892;DHT22;4482;54.332;10.118;2023-03-05T02:44:17;2.00;99.90
8892;DHT22;4482;54.332;10.118;2023-03-05T02:46:44;2.00;99.90
8892;DHT22;4482;54.332;10.118;2023-03-05T02:49:11;2.00;99.90
8892;DHT22;4482;54.332;10.118;2023-03-05T02:51:37;2.00;99.90
8892;DHT22;4482;54.332;10.118;2023-03-05T02:54:04;2.00;99.90
8892;DHT22;4482;54.332;10.118;2023-03-05T02:56:32;2.00;99.90
8892;DHT22;4482;54.332;10.118;2023-03-05T02:58:59;2.00;99.90
8892;DHT22;4482;54.332;10.118;2023-03-05T03:01:26;2.10;99.90
8892;DHT22;4482;54.332;10.118;2023-03-05T03:03:54;2.00;99.90
8892;DHT22;4482;54.332;10.118;2023-03-05T03:06:20;2.00;99.90
8892;DHT22;4482;54.332;10.118;2023-03-05T03:08:47;2.10;99.90
8892;DHT22;4482;54.332;10.118;2023-03-05T03:11:13;2.00;99.90
8892;DHT22;4482;54.332;10.118;2023-03-05T03:13:42;2.00;99.90
8892;DHT22;4482;54.332;10.118;2023-03-05T03:16:09;2.00;99.90
8892;DHT22;4482;54.332;10.118;2023-03-05T03:18:36;1.90;99.90
8892;DHT22;4482;54.332;10.118;2023-03-05T03:21:03;1.90;99.90
8892;DHT22;4482;54.332;10.118;2023-03-05T03:23:30;1.90;99.90
8892;DHT22;4482;54.332;10.118;2023-03-05T03:25:57;1.90;99.90
8892;DHT22;4482;54.332;10.118;2023-03-05T03:28:24;1.90;99.90
8892;DHT22;4482;54.332;10.118;2023-03-05T03:30:52;2.00;99.90
8892;DHT22;4482;54.332;10.118;2023-03-05T03:33:18;2.10;99.90
8892;DHT22;4482;54.332;10.118;2023-03-05T03:35:45;2.00;99.90
8892;DHT22;4482;54.332;10.118;2023-03-05T03:38:12;2.10;99.90
8892;DHT22;4482;54.332;10.118;2023-03-05T03:40:39;2.00;99.90
8892;DHT22;4482;54.332;10.118;2023-03-05T03:43:06;2.00;99.90
8892;DHT22;4482;54.332;10.118;2023-03-05T03:45:32;2.00;99.90
8892;DHT22;4482;54.332;10.118;2023-03-05T03:48:00;2.00;99.90
8892;DHT22;4482;54.332;10.118;2023-03-05T03:50:27;2.00;99.90
8892;DHT22;4482;54.332;10.118;2023-03-05T03:52:54;2.00;99.90
8892;DHT22;4482;54.332;10.118;2023-03-05T03:55:20;2.00;99.90
8892;DHT22;4482;54.332;10.118;2023-03-05T03:57:47;2.00;99.90
8892;DHT22;4482;54.332;10.118;2023-03-05T04:00:14;2.00;99.90
8892;DHT22;4482;54.332;10.118;2023-03-05T04:02:41;2.00;99.90
8892;DHT22;4482;54.332;10.118;2023-03-05T04:05:09;2.10;99.90
8892;DHT22;4482;54.332;10.118;2023-03-05T04:07:35;2.00;99.90
8892;DHT22;4482;54.332;10.118;2023-03-05T04:10:02;2.10;99.90
8892;DHT22;4482;54.332;10.118;2023-03-05T04:12:29;2.10;99.90
8892;DHT22;4482;54.332;10.118;2023-03-05T04:14:56;2.10;99.90
8892;DHT22;4482;54.332;10.118;2023-03-05T04:17:22;2.10;99.90
8892;DHT22;4482;54.332;10.118;2023-03-05T04:19:49;2.20;99.90
8892;DHT22;4482;54.332;10.118;2023-03-05T04:22:17;2.20;99.90
8892;DHT22;4482;54.332;10.118;2023-03-05T04:24:43;2.10;99.90
8892;DHT22;4482;54.332;10.118;2023-03-05T04:27:10;2.10;99.90
8892;DHT22;4482;54.332;10.118;2023-03-05T04:29:37;2.10;99.90
8892;DHT22;4482;54.332;10.118;2023-03-05T04:32:04;2.10;99.90
8892;DHT22;4482;54.332;10.118;2023-03-05T04:34:31;2.10;99.90
8892;DHT22;4482;54.332;10.118;2023-03-05T04:36:58;2.10;99.90
8892;DHT22;4482;54.332;10.118;2023-03-05T04:39:26;2.10;99.90
8892;DHT22;4482;54.332;10.118;2023-03-05T04:41:52;2.00;99.90
8892;DHT22;4482;54.332;10.118;2023-03-05T04:44:19;2.00;99.90
8892;DHT22;4482;54.332;10.118;2023-03-05T04:46:47;2.00;99.90
8892;DHT22;4482;54.332;10.118;2023-03-05T04:49:14;2.00;99.90
8892;DHT22;4482;54.332;10.118;2023-03-05T04:51:40;1.90;99.90
8892;DHT22;4482;54.332;10.118;2023-03-05T04:54:07;1.90;99.90
8892;DHT22;4482;54.332;10.118;2023-03-05T04:56:35;1.90;99.90
8892;DHT22;4482;54.332;10.118;2023-03-05T04:59:02;1.90;99.90
8892;DHT22;4482;54.332;10.118;2023-03-05T05:01:28;1.90;99.90
8892;DHT22;4482;54.332;10.118;2023-03-05T05:03:55;1.90;99.90
8892;DHT22;4482;54.332;10.118;2023-03-05T05:06:22;2.00;99.90
8892;DHT22;4482;54.332;10.118;2023-03-05T05:08:48;2.00;99.90
8892;DHT22;4482;54.332;10.118;2023-03-05T05:11:15;1.90;99.90
8892;DHT22;4482;54.332;10.118;2023-03-05T05:13:43;1.90;99.90
8892;DHT22;4482;54.332;10.118;2023-03-05T05:16:10;1.80;99.90
8892;DHT22;4482;54.332;10.118;2023-03-05T05:18:37;1.80;99.90
8892;DHT22;4482;54.332;10.118;2023-03-05T05:21:06;1.70;99.90
8892;DHT22;4482;54.332;10.118;2023-03-05T05:23:32;1.70;99.90
8892;DHT22;4482;54.332;10.118;2023-03-05T05:25:59;1.70;99.90
8892;DHT22;4482;54.332;10.118;2023-03-05T05:28:27;1.60;99.90
8892;DHT22;4482;54.332;10.118;2023-03-05T05:30:55;1.70;99.90
8892;DHT22;4482;54.332;10.118;2023-03-05T05:33:22;1.60;99.90
8892;DHT22;4482;54.332;10.118;2023-03-05T05:35:49;1.60;99.90
8892;DHT22;4482;54.332;10.118;2023-03-05T05:38:15;1.60;99.90
8892;DHT22;4482;54.332;10.118;2023-03-05T05:40:42;1.60;99.90
8892;DHT22;4482;54.332;10.118;2023-03-05T05:43:09;1.60;99.90
8892;DHT22;4482;54.332;10.118;2023-03-05T05:45:36;1.60;99.90
8892;DHT22;4482;54.332;10.118;2023-03-05T05:48:04;1.60;99.90
8892;DHT22;4482;54.332;10.118;2023-03-05T05:50:31;1.60;99.90
8892;DHT22;4482;54.332;10.118;2023-03-05T05:52:58;1.60;99.90
8892;DHT22;4482;54.332;10.118;2023-03-05T05:55:24;1.60;99.90
8892;DHT22;4482;54.332;10.118;2023-03-05T05:57:51;1.50;99.90
8892;DHT22;4482;54.332;10.118;2023-03-05T06:00:18;1.50;99.90
8892;DHT22;4482;54.332;10.118;2023-03-05T06:02:44;1.50;99.90
8892;DHT22;4482;54.332;10.118;2023-03-05T06:05:13;1.70;99.90
8892;DHT22;4482;54.332;10.118;2023-03-05T06:07:40;1.90;99.90
8892;DHT22;4482;54.332;10.118;2023-03-05T06:10:08;1.80;99.90
8892;DHT22;4482;54.332;10.118;2023-03-05T06:12:35;1.70;99.90
8892;DHT22;4482;54.332;10.118;2023-03-05T06:15:01;1.70;99.90
8892;DHT22;4482;54.332;10.118;2023-03-05T06:17:28;1.70;99.90
8892;DHT22;4482;54.332;10.118;2023-03-05T06:19:55;1.60;99.90
8892;DHT22;4482;54.332;10.118;2023-03-05T06:22:24;1.50;99.90
8892;DHT22;4482;54.332;10.118;2023-03-05T06:24:50;1.50;99.90
8892;DHT22;4482;54.332;10.118;2023-03-05T06:27:17;1.50;99.90
8892;DHT22;4482;54.332;10.118;2023-03-05T06:29:43;1.60;99.90
8892;DHT22;4482;54.332;10.118;2023-03-05T06:32:10;1.60;99.90
8892;DHT22;4482;54.332;10.118;2023-03-05T06:34:37;1.60;99.90
8892;DHT22;4482;54.332;10.118;2023-03-05T06:37:03;1.60;99.90
8892;DHT22;4482;54.332;10.118;2023-03-05T06:39:32;1.70;99.90
8892;DHT22;4482;54.332;10.118;2023-03-05T06:41:58;1.70;99.90
8892;DHT22;4482;54.332;10.118;2023-03-05T06:44:25;1.70;99.90
8892;DHT22;4482;54.332;10.118;2023-03-05T06:46:52;1.80;99.90
8892;DHT22;4482;54.332;10.118;2023-03-05T06:49:18;1.80;99.90
8892;DHT22;4482;54.332;10.118;2023-03-05T06:51:45;1.90;99.90
8892;DHT22;4482;54.332;10.118;2023-03-05T06:54:13;1.90;99.90
8892;DHT22;4482;54.332;10.118;2023-03-05T06:56:42;1.90;99.90
8892;DHT22;4482;54.332;10.118;2023-03-05T06:59:09;2.00;99.90
8892;DHT22;4482;54.332;10.118;2023-03-05T07:01:36;2.00;99.90
8892;DHT22;4482;54.332;10.118;2023-03-05T07:04:03;2.30;99.90
8892;DHT22;4482;54.332;10.118;2023-03-05T07:06:30;2.50;99.90
8892;DHT22;4482;54.332;10.118;2023-03-05T07:08:57;2.40;99.90
8892;DHT22;4482;54.332;10.118;2023-03-05T07:11:26;2.40;99.90
8892;DHT22;4482;54.332;10.118;2023-03-05T07:13:54;2.40;99.90
8892;DHT22;4482;54.332;10.118;2023-03-05T07:16:23;2.50;99.90
8892;DHT22;4482;54.332;10.118;2023-03-05T07:18:50;2.60;99.90
8892;DHT22;4482;54.332;10.118;2023-03-05T07:21:18;2.70;99.90
8892;DHT22;4482;54.332;10.118;2023-03-05T07:23:45;3.00;99.90
8892;DHT22;4482;54.332;10.118;2023-03-05T07:26:11;3.10;99.90
8892;DHT22;4482;54.332;10.118;2023-03-05T07:28:38;3.30;99.90
8892;DHT22;4482;54.332;10.118;2023-03-05T07:31:07;3.40;99.90
8892;DHT22;4482;54.332;10.118;2023-03-05T07:33:34;3.60;99.90
8892;DHT22;4482;54.332;10.118;2023-03-05T07:36:01;3.70;99.90
8892;DHT22;4482;54.332;10.118;2023-03-05T07:38:29;3.80;99.90
8892;DHT22;4482;54.332;10.118;2023-03-05T07:41:00;3.90;99.90
8892;DHT22;4482;54.332;10.118;2023-03-05T07:43:27;4.00;99.90
8892;DHT22;4482;54.332;10.118;2023-03-05T07:45:53;4.10;99.90
8892;DHT22;4482;54.332;10.118;2023-03-05T07:48:22;4.30;99.90
8892;DHT22;4482;54.332;10.118;2023-03-05T07:50:49;4.30;99.90
8892;DHT22;4482;54.332;10.118;2023-03-05T07:53:15;4.40;99.90
8892;DHT22;4482;54.332;10.118;2023-03-05T07:55:42;4.50;99.90
8892;DHT22;4482;54.332;10.118;2023-03-05T07:58:09;4.50;99.90
8892;DHT22;4482;54.332;10.118;2023-03-05T08:00:36;4.50;99.90
8892;DHT22;4482;54.332;10.118;2023-03-05T08:03:03;4.90;99.90
8892;DHT22;4482;54.332;10.118;2023-03-05T08:05:31;4.80;99.90
8892;DHT22;4482;54.332;10.118;2023-03-05T08:07:58;4.70;99.90
8892;DHT22;4482;54.332;10.118;2023-03-05T08:10:33;4.40;99.90
8892;DHT22;4482;54.332;10.118;2023-03-05T08:13:09;4.20;99.90
8892;DHT22;4482;54.332;10.118;2023-03-05T08:15:36;4.10;99.90
8892;DHT22;4482;54.332;10.118;2023-03-05T08:18:03;4.10;99.90
8892;DHT22;4482;54.332;10.118;2023-03-05T08:20:33;4.10;99.90
8892;DHT22;4482;54.332;10.118;2023-03-05T08:22:59;4.10;99.90
8892;DHT22;4482;54.332;10.118;2023-03-05T08:25:27;4.00;99.90
8892;DHT22;4482;54.332;10.118;2023-03-05T08:27:54;4.00;99.90
8892;DHT22;4482;54.332;10.118;2023-03-05T08:30:21;3.90;99.90
8892;DHT22;4482;54.332;10.118;2023-03-05T08:32:51;3.90;99.90
8892;DHT22;4482;54.332;10.118;2023-03-05T08:35:18;3.80;99.90
8892;DHT22;4482;54.332;10.118;2023-03-05T08:37:46;3.80;99.90
8892;DHT22;4482;54.332;10.118;2023-03-05T08:40:13;3.90;99.90
8892;DHT22;4482;54.332;10.118;2023-03-05T08:42:42;3.90;99.90
8892;DHT22;4482;54.332;10.118;2023-03-05T08:45:09;3.90;99.90
8892;DHT22;4482;54.332;10.118;2023-03-05T08:47:36;4.00;99.90
8892;DHT22;4482;54.332;10.118;2023-03-05T08:50:02;4.00;99.90
8892;DHT22;4482;54.332;10.118;2023-03-05T08:52:29;4.10;99.90
8892;DHT22;4482;54.332;10.118;2023-03-05T08:54:57;4.10;99.90
8892;DHT22;4482;54.332;10.118;2023-03-05T08:57:24;4.10;99.90
8892;DHT22;4482;54.332;10.118;2023-03-05T08:59:51;4.10;99.90
8892;DHT22;4482;54.332;10.118;2023-03-05T09:02:17;4.20;99.90
8892;DHT22;4482;54.332;10.118;2023-03-05T09:04:44;4.30;99.90
8892;DHT22;4482;54.332;10.118;2023-03-05T09:07:10;4.60;99.90
8892;DHT22;4482;54.332;10.118;2023-03-05T09:09:37;4.60;99.90
8892;DHT22;4482;54.332;10.118;2023-03-05T09:12:08;4.60;99.90
8892;DHT22;4482;54.332;10.118;2023-03-05T09:14:36;4.70;99.90
8892;DHT22;4482;54.332;10.118;2023-03-05T09:17:02;4.90;99.90
8892;DHT22;4482;54.332;10.118;2023-03-05T09:19:29;5.00;99.90
8892;DHT22;4482;54.332;10.118;2023-03-05T09:21:56;5.00;99.90
8892;DHT22;4482;54.332;10.118;2023-03-05T09:24:22;5.10;99.90
8892;DHT22;4482;54.332;10.118;2023-03-05T09:26:49;5.20;99.90
8892;DHT22;4482;54.332;10.118;2023-03-05T09:29:17;5.20;99.90
8892;DHT22;4482;54.332;10.118;2023-03-05T09:31:44;5.00;99.90
8892;DHT22;4482;54.332;10.118;2023-03-05T09:34:12;4.90;99.90
8892;DHT22;4482;54.332;10.118;2023-03-05T09:36:39;4.80;99.90
8892;DHT22;4482;54.332;10.118;2023-03-05T09:39:07;4.90;99.90
8892;DHT22;4482;54.332;10.118;2023-03-05T09:41:36;4.90;99.90
8892;DHT22;4482;54.332;10.118;2023-03-05T09:44:15;5.10;99.90
8892;DHT22;4482;54.332;10.118;2023-03-05T09:46:51;5.40;99.90
8892;DHT22;4482;54.332;10.118;2023-03-05T09:49:23;5.50;99.90
8892;DHT22;4482;54.332;10.118;2023-03-05T09:52:04;5.70;99.90
8892;DHT22;4482;54.332;10.118;2023-03-05T09:54:39;5.50;99.90
8892;DHT22;4482;54.332;10.118;2023-03-05T09:57:10;5.50;99.90
8892;DHT22;4482;54.332;10.118;2023-03-05T09:59:41;5.70;99.90
8892;DHT22;4482;54.332;10.118;2023-03-05T10:02:13;6.00;99.90
8892;DHT22;4482;54.332;10.118;2023-03-05T10:04:43;6.10;99.90
8892;DHT22;4482;54.332;10.118;2023-03-05T10:07:16;6.10;99.90
8892;DHT22;4482;54.332;10.118;2023-03-05T10:09:45;6.10;99.90
8892;DHT22;4482;54.332;10.118;2023-03-05T10:12:17;6.10;99.90
8892;DHT22;4482;54.332;10.118;2023-03-05T10:14:47;6.00;99.90
8892;DHT22;4482;54.332;10.118;2023-03-05T10:17:25;5.80;99.90
8892;DHT22;4482;54.332;10.118;2023-03-05T10:22:48;5.80;99.90
8892;DHT22;4482;54.332;10.118;2023-03-05T10:25:19;5.80;99.90
8892;DHT22;4482;54.332;10.118;2023-03-05T10:27:50;5.70;99.90
8892;DHT22;4482;54.332;10.118;2023-03-05T10:30:26;5.50;99.90
8892;DHT22;4482;54.332;10.118;2023-03-05T10:33:00;5.50;99.90
8892;DHT22;4482;54.332;10.118;2023-03-05T10:35:32;5.50;99.90
8892;DHT22;4482;54.332;10.118;2023-03-05T10:38:07;5.60;99.90
8892;DHT22;4482;54.332;10.118;2023-03-05T10:40:38;5.50;99.90
8892;DHT22;4482;54.332;10.118;2023-03-05T10:43:07;5.40;99.90
8892;DHT22;4482;54.332;10.118;2023-03-05T10:45:39;5.50;99.90
8892;DHT22;4482;54.332;10.118;2023-03-05T10:48:10;5.50;99.90
8892;DHT22;4482;54.332;10.118;2023-03-05T10:50:39;5.60;99.90
8892;DHT22;4482;54.332;10.118;2023-03-05T10:53:11;5.70;99.90
8892;DHT22;4482;54.332;10.118;2023-03-05T10:55:39;5.80;99.90
8892;DHT22;4482;54.332;10.118;2023-03-05T10:58:10;5.90;99.90
8892;DHT22;4482;54.332;10.118;2023-03-05T11:00:37;5.70;99.90
8892;DHT22;4482;54.332;10.118;2023-03-05T11:03:04;5.60;99.90
8892;DHT22;4482;54.332;10.118;2023-03-05T11:05:43;5.60;99.90
8892;DHT22;4482;54.332;10.118;2023-03-05T11:08:22;5.40;99.90
8892;DHT22;4482;54.332;10.118;2023-03-05T11:10:55;5.10;99.90
8892;DHT22;4482;54.332;10.118;2023-03-05T11:13:27;5.00;99.90
8892;DHT22;4482;54.332;10.118;2023-03-05T11:15:57;5.00;99.90
8892;DHT22;4482;54.332;10.118;2023-03-05T11:18:24;5.20;99.90
8892;DHT22;4482;54.332;10.118;2023-03-05T11:20:52;5.30;99.90
8892;DHT22;4482;54.332;10.118;2023-03-05T11:23:31;5.50;99.90
8892;DHT22;4482;54.332;10.118;2023-03-05T11:25:59;5.70;99.90
8892;DHT22;4482;54.332;10.118;2023-03-05T11:28:27;6.00;99.90
8892;DHT22;4482;54.332;10.118;2023-03-05T11:30:56;5.90;99.90
8892;DHT22;4482;54.332;10.118;2023-03-05T11:33:23;5.50;99.90
8892;DHT22;4482;54.332;10.118;2023-03-05T11:35:51;5.40;99.90
8892;DHT22;4482;54.332;10.118;2023-03-05T11:38:21;5.30;99.90
8892;DHT22;4482;54.332;10.118;2023-03-05T11:40:49;5.30;99.90
8892;DHT22;4482;54.332;10.118;2023-03-05T11:43:16;5.50;99.90
8892;DHT22;4482;54.332;10.118;2023-03-05T11:45:44;5.50;99.90
8892;DHT22;4482;54.332;10.118;2023-03-05T11:48:12;5.80;99.90
8892;DHT22;4482;54.332;10.118;2023-03-05T11:50:42;5.80;99.90
8892;DHT22;4482;54.332;10.118;2023-03-05T11:53:11;5.80;99.90
8892;DHT22;4482;54.332;10.118;2023-03-05T11:55:41;5.90;99.90
8892;DHT22;4482;54.332;10.118;2023-03-05T11:58:11;5.90;99.90
8892;DHT22;4482;54.332;10.118;2023-03-05T12:00:41;5.80;99.90
8892;DHT22;4482;54.332;10.118;2023-03-05T12:03:10;5.50;99.90
8892;DHT22;4482;54.332;10.118;2023-03-05T12:05:37;5.30;99.90
8892;DHT22;4482;54.332;10.118;2023-03-05T12:08:08;5.20;99.90
8892;DHT22;4482;54.332;10.118;2023-03-05T12:10:38;5.20;99.90
8892;DHT22;4482;54.332;10.118;2023-03-05T12:13:11;5.30;99.90
8892;DHT22;4482;54.332;10.118;2023-03-05T12:15:43;5.40;99.90
8892;DHT22;4482;54.332;10.118;2023-03-05T12:18:14;5.60;99.90
8892;DHT22;4482;54.332;10.118;2023-03-05T12:20:44;5.80;99.90
8892;DHT22;4482;54.332;10.118;2023-03-05T12:23:13;5.80;99.90
8892;DHT22;4482;54.332;10.118;2023-03-05T12:25:44;5.80;99.90
8892;DHT22;4482;54.332;10.118;2023-03-05T12:28:14;5.80;99.90
8892;DHT22;4482;54.332;10.118;2023-03-05T12:33:30;6.10;99.90
8892;DHT22;4482;54.332;10.118;2023-03-05T12:38:43;6.20;99.90
8892;DHT22;4482;54.332;10.118;2023-03-05T12:44:09;5.90;99.90
8892;DHT22;4482;54.332;10.118;2023-03-05T12:46:42;5.40;99.90
8892;DHT22;4482;54.332;10.118;2023-03-05T12:49:27;4.90;99.90
8892;DHT22;4482;54.332;10.118;2023-03-05T12:51:55;4.60;99.90
8892;DHT22;4482;54.332;10.118;2023-03-05T12:54:27;4.60;99.90
8892;DHT22;4482;54.332;10.118;2023-03-05T12:56:54;4.80;99.90
8892;DHT22;4482;54.332;10.118;2023-03-05T12:59:23;5.00;99.90
8892;DHT22;4482;54.332;10.118;2023-03-05T13:01:53;5.10;99.90
8892;DHT22;4482;54.332;10.118;2023-03-05T13:04:22;5.30;99.90
8892;DHT22;4482;54.332;10.118;2023-03-05T13:06:56;5.40;99.90
8892;DHT22;4482;54.332;10.118;2023-03-05T13:09:24;5.10;99.90
8892;DHT22;4482;54.332;10.118;2023-03-05T13:11:52;5.00;99.90
8892;DHT22;4482;54.332;10.118;2023-03-05T13:14:26;5.10;99.90
8892;DHT22;4482;54.332;10.118;2023-03-05T13:16:53;5.20;99.90
8892;DHT22;4482;54.332;10.118;2023-03-05T13:19:20;5.10;99.90
8892;DHT22;4482;54.332;10.118;2023-03-05T13:21:55;5.20;99.90
8892;DHT22;4482;54.332;10.118;2023-03-05T13:24:22;5.30;99.90
8892;DHT22;4482;54.332;10.118;2023-03-05T13:26:49;5.30;99.90
8892;DHT22;4482;54.332;10.118;2023-03-05T13:29:16;5.30;99.90
8892;DHT22;4482;54.332;10.118;2023-03-05T13:31:45;5.40;99.90
8892;DHT22;4482;54.332;10.118;2023-03-05T13:34:16;5.50;99.90
8892;DHT22;4482;54.332;10.118;2023-03-05T13:36:47;5.50;99.90
8892;DHT22;4482;54.332;10.118;2023-03-05T13:39:19;5.60;99.90
8892;DHT22;4482;54.332;10.118;2023-03-05T13:41:56;5.70;99.90
8892;DHT22;4482;54.332;10.118;2023-03-05T13:44:23;5.60;99.90
8892;DHT22;4482;54.332;10.118;2023-03-05T13:46:51;5.60;99.90
8892;DHT22;4482;54.332;10.118;2023-03-05T13:49:25;5.60;99.90
8892;DHT22;4482;54.332;10.118;2023-03-05T13:51:53;5.50;99.90
8892;DHT22;4482;54.332;10.118;2023-03-05T13:54:21;5.70;99.90
8892;DHT22;4482;54.332;10.118;2023-03-05T13:56:49;6.00;99.90
8892;DHT22;4482;54.332;10.118;2023-03-05T13:59:16;6.10;99.90
8892;DHT22;4482;54.332;10.118;2023-03-05T14:01:43;6.10;99.90
8892;DHT22;4482;54.332;10.118;2023-03-05T14:04:17;6.10;99.90
8892;DHT22;4482;54.332;10.118;2023-03-05T14:06:45;5.90;99.90
8892;DHT22;4482;54.332;10.118;2023-03-05T14:09:17;5.80;99.90
8892;DHT22;4482;54.332;10.118;2023-03-05T14:11:50;5.70;99.90
8892;DHT22;4482;54.332;10.118;2023-03-05T14:14:17;5.70;99.90
8892;DHT22;4482;54.332;10.118;2023-03-05T14:16:45;5.60;99.90
8892;DHT22;4482;54.332;10.118;2023-03-05T14:19:27;5.50;99.90
8892;DHT22;4482;54.332;10.118;2023-03-05T14:21:55;5.50;99.90
8892;DHT22;4482;54.332;10.118;2023-03-05T14:24:23;5.40;99.90
8892;DHT22;4482;54.332;10.118;2023-03-05T14:26:52;5.60;99.90
8892;DHT22;4482;54.332;10.118;2023-03-05T14:29:21;5.50;99.90
8892;DHT22;4482;54.332;10.118;2023-03-05T14:31:50;5.40;99.90
8892;DHT22;4482;54.332;10.118;2023-03-05T14:34:19;5.30;99.90
8892;DHT22;4482;54.332;10.118;2023-03-05T14:36:48;5.20;99.90
8892;DHT22;4482;54.332;10.118;2023-03-05T14:39:28;5.20;99.90
8892;DHT22;4482;54.332;10.118;2023-03-05T14:44:37;5.20;99.90
8892;DHT22;4482;54.332;10.118;2023-03-05T14:47:05;5.30;99.90
8892;DHT22;4482;54.332;10.118;2023-03-05T14:49:33;5.30;99.90
8892;DHT22;4482;54.332;10.118;2023-03-05T14:52:01;5.40;99.90
8892;DHT22;4482;54.332;10.118;2023-03-05T14:54:28;5.50;99.90
8892;DHT22;4482;54.332;10.118;2023-03-05T14:56:58;5.50;99.90
8892;DHT22;4482;54.332;10.118;2023-03-05T14:59:24;5.50;99.90
8892;DHT22;4482;54.332;10.118;2023-03-05T15:01:51;5.40;99.90
8892;DHT22;4482;54.332;10.118;2023-03-05T15:04:18;5.30;99.90
8892;DHT22;4482;54.332;10.118;2023-03-05T15:06:45;5.30;99.90
8892;DHT22;4482;54.332;10.118;2023-03-05T15:09:16;5.30;99.90
8892;DHT22;4482;54.332;10.118;2023-03-05T15:11:44;5.30;99.90
8892;DHT22;4482;54.332;10.118;2023-03-05T15:14:10;5.20;99.90
8892;DHT22;4482;54.332;10.118;2023-03-05T15:16:37;5.20;99.90
8892;DHT22;4482;54.332;10.118;2023-03-05T15:19:05;5.10;99.90
8892;DHT22;4482;54.332;10.118;2023-03-05T15:21:31;5.10;99.90
8892;DHT22;4482;54.332;10.118;2023-03-05T15:23:58;5.00;99.90
8892;DHT22;4482;54.332;10.118;2023-03-05T15:26:26;5.00;99.90
8892;DHT22;4482;54.332;10.118;2023-03-05T15:28:53;5.00;99.90
8892;DHT22;4482;54.332;10.118;2023-03-05T15:31:19;5.00;99.90
8892;DHT22;4482;54.332;10.118;2023-03-05T15:33:46;4.90;99.90
8892;DHT22;4482;54.332;10.118;2023-03-05T15:36:13;4.80;99.90
8892;DHT22;4482;54.332;10.118;2023-03-05T15:38:39;5.00;99.90
8892;DHT22;4482;54.332;10.118;2023-03-05T15:41:07;4.90;99.90
8892;DHT22;4482;54.332;10.118;2023-03-05T15:43:35;4.90;99.90
8892;DHT22;4482;54.332;10.118;2023-03-05T15:46:03;4.70;99.90
8892;DHT22;4482;54.332;10.118;2023-03-05T15:48:29;4.60;99.90
8892;DHT22;4482;54.332;10.118;2023-03-05T15:50:56;4.60;99.90
8892;DHT22;4482;54.332;10.118;2023-03-05T15:53:23;4.60;99.90
8892;DHT22;4482;54.332;10.118;2023-03-05T15:55:50;4.50;99.90
8892;DHT22;4482;54.332;10.118;2023-03-05T15:58:16;4.50;99.90
8892;DHT22;4482;54.332;10.118;2023-03-05T16:00:44;4.50;99.90
8892;DHT22;4482;54.332;10.118;2023-03-05T16:03:13;4.50;99.90
8892;DHT22;4482;54.332;10.118;2023-03-05T16:05:40;4.50;99.90
8892;DHT22;4482;54.332;10.118;2023-03-05T16:08:06;4.40;99.90
8892;DHT22;4482;54.332;10.118;2023-03-05T16:10:34;4.50;99.90
8892;DHT22;4482;54.332;10.118;2023-03-05T16:13:03;4.40;99.90
8892;DHT22;4482;54.332;10.118;2023-03-05T16:15:33;4.40;99.90
8892;DHT22;4482;54.332;10.118;2023-03-05T16:18:03;4.40;99.90
8892;DHT22;4482;54.332;10.118;2023-03-05T16:20:31;4.30;99.90
8892;DHT22;4482;54.332;10.118;2023-03-05T16:22:57;4.30;99.90